Phoenix, Arizona
Traffic Map
Current Weather Conditions
Phoenix, Arizona
Few Clouds
Few Clouds
105°
Feels Like: 105°
Wind Chill: 105° Ceiling: Unl
Heat Index: 105° Visibility: 10mi
Dew Point: 56° Wind: 12mph
Humidity: 20% Direction: 120° (ESE)
Pressure: 29.85in Gusts: 0mph
Raw Report DataKPHX 241651Z 12010KT 10SM FEW190 FEW230 41/13 A2985 RMK AO2 SLP083 T04060133
Traffic Incident Summary
Active as of:
Severity:
Category:
InformationThere was an issue retrieving the traffic information for this location. Please try a different location or try again shortly.
Advertisements
Track Severe Weather on mobile